Time;durP1;ratioP1;P1;durP2;ratioP2;P2;SDS_P1;SDS_P2;PMS_P1;PMS_P2;Temp;Humidity;BMP_temperature;BMP_pressure;BME280_temperature;BME280_humidity;BME280_pressure;Samples;Min_cycle;Max_cycle;Signal;HPM_P1;HPM_P2
2023/08/06 00:02:22;;;;;;;4.60;4.07;;;;;;;;;;5044541;28;21017;-80
2023/08/06 00:04:48;;;;;;;5.70;4.20;;;;;;;;;;5043741;28;20479;-80
2023/08/06 00:07:15;;;;;;;5.70;4.40;;;;;;;;;;5043016;28;20466;-79
2023/08/06 00:09:41;;;;;;;7.60;4.17;;;;;;;;;;5042211;28;20455;-80
2023/08/06 00:12:08;;;;;;;4.60;3.80;;;;;;;;;;5046929;28;20479;-80
2023/08/06 00:14:35;;;;;;;4.10;3.70;;;;;;;;;;5044658;28;20454;-80
2023/08/06 00:17:04;;;;;;;6.00;3.80;;;;;;;;;;5041248;28;20837;-80
2023/08/06 00:19:31;;;;;;;6.73;4.03;;;;;;;;;;5043786;28;20479;-80
2023/08/06 00:21:57;;;;;;;6.30;4.67;;;;;;;;;;5041647;28;20457;-80
2023/08/06 00:24:23;;;;;;;5.20;4.33;;;;;;;;;;5042944;28;20450;-80
2023/08/06 00:26:50;;;;;;;6.33;4.03;;;;;;;;;;5043061;28;20568;-80
2023/08/06 00:29:16;;;;;;;4.23;3.83;;;;;;;;;;5041442;28;20439;-80
2023/08/06 00:31:43;;;;;;;4.03;3.63;;;;;;;;;;5042915;28;20483;-80
2023/08/06 00:34:11;;;;;;;5.23;4.73;;;;;;;;;;5042580;28;20476;-80
2023/08/06 00:36:37;;;;;;;4.53;4.10;;;;;;;;;;5042987;28;20435;-80
2023/08/06 00:39:03;;;;;;;7.73;4.43;;;;;;;;;;5043774;28;20475;-80
2023/08/06 00:41:30;;;;;;;5.70;5.20;;;;;;;;;;5043955;28;20468;-79
2023/08/06 00:43:56;;;;;;;4.57;4.17;;;;;;;;;;5045963;28;20443;-80
2023/08/06 00:46:23;;;;;;;4.90;4.50;;;;;;;;;;5042116;28;20480;-80
2023/08/06 00:48:49;;;;;;;4.00;3.60;;;;;;;;;;5045138;28;20471;-80
2023/08/06 00:51:17;;;;;;;5.17;4.43;;;;;;;;;;5044614;28;20467;-80
2023/08/06 00:53:44;;;;;;;5.00;4.50;;;;;;;;;;5042750;28;20484;-80
2023/08/06 00:56:10;;;;;;;7.20;4.40;;;;;;;;;;5041555;28;20453;-80
2023/08/06 00:58:37;;;;;;;7.57;3.60;;;;;;;;;;5043466;28;20454;-80
2023/08/06 01:01:03;;;;;;;5.37;4.57;;;;;;;;;;5045100;28;20537;-80
2023/08/06 01:03:30;;;;;;;5.23;4.47;;;;;;;;;;5043043;28;20456;-80
2023/08/06 01:05:58;;;;;;;4.93;4.10;;;;;;;;;;5041719;28;20435;-80
2023/08/06 01:08:32;;;;;;;4.47;4.07;;;;;;;;;;5045378;28;20472;-80
2023/08/06 01:11:04;;;;;;;7.60;4.37;;;;;;;;;;5043601;28;20445;-80
2023/08/06 01:13:33;;;;;;;4.70;4.20;;;;;;;;;;5043856;28;20447;-80
2023/08/06 01:16:01;;;;;;;5.73;5.03;;;;;;;;;;5042797;28;20438;-80
2023/08/06 01:18:27;;;;;;;4.57;4.17;;;;;;;;;;5043252;28;20447;-80
2023/08/06 01:20:55;;;;;;;8.63;3.97;;;;;;;;;;5042695;28;20438;-80
2023/08/06 01:23:21;;;;;;;5.60;5.00;;;;;;;;;;5042685;28;20502;-80
2023/08/06 01:25:53;;;;;;;6.00;4.97;;;;;;;;;;5043035;28;20435;-80
2023/08/06 01:28:27;;;;;;;6.00;4.47;;;;;;;;;;5040191;28;20454;-80
2023/08/06 01:30:55;;;;;;;5.63;5.10;;;;;;;;;;5041330;28;20455;-80
2023/08/06 01:33:22;;;;;;;5.90;4.53;;;;;;;;;;5042597;28;20848;-83
2023/08/06 01:35:49;;;;;;;5.10;4.30;;;;;;;;;;5042084;28;20430;-80
2023/08/06 01:38:17;;;;;;;6.50;5.70;;;;;;;;;;5039848;28;20857;-80
2023/08/06 01:40:43;;;;;;;5.30;4.80;;;;;;;;;;5041265;28;20441;-80
2023/08/06 01:43:10;;;;;;;8.40;5.20;;;;;;;;;;5040984;28;20977;-80
2023/08/06 01:45:37;;;;;;;7.63;6.13;;;;;;;;;;5043234;28;20898;-80
2023/08/06 01:48:03;;;;;;;7.33;5.00;;;;;;;;;;5042820;28;20475;-80
2023/08/06 01:50:30;;;;;;;5.50;4.90;;;;;;;;;;5044780;28;20446;-80
2023/08/06 01:52:56;;;;;;;6.70;5.43;;;;;;;;;;5039527;28;20480;-80
2023/08/06 01:55:24;;;;;;;7.00;6.30;;;;;;;;;;5043651;28;20469;-80
2023/08/06 01:57:50;;;;;;;6.23;5.50;;;;;;;;;;5042780;28;20437;-80
2023/08/06 02:00:17;;;;;;;6.10;5.50;;;;;;;;;;5041201;28;20507;-80
2023/08/06 02:02:43;;;;;;;7.10;6.10;;;;;;;;;;5041347;28;20462;-80
2023/08/06 02:05:10;;;;;;;9.40;6.13;;;;;;;;;;5042873;28;20443;-80
2023/08/06 02:07:36;;;;;;;8.53;6.10;;;;;;;;;;5042063;28;20473;-80
2023/08/06 02:10:03;;;;;;;6.10;5.50;;;;;;;;;;5045315;28;20453;-80
2023/08/06 02:12:31;;;;;;;7.80;5.73;;;;;;;;;;5038025;28;20469;-80
2023/08/06 02:14:57;;;;;;;8.13;5.40;;;;;;;;;;5041471;28;20498;-80
2023/08/06 02:17:23;;;;;;;7.17;5.40;;;;;;;;;;5042706;28;20426;-80
2023/08/06 02:19:50;;;;;;;6.80;5.43;;;;;;;;;;5040663;28;21023;-79
2023/08/06 02:22:16;;;;;;;10.20;5.67;;;;;;;;;;5044964;28;21035;-80
2023/08/06 02:24:43;;;;;;;5.93;5.43;;;;;;;;;;5041931;28;20449;-79
2023/08/06 02:27:09;;;;;;;7.83;5.80;;;;;;;;;;5043613;28;20815;-80
2023/08/06 02:29:37;;;;;;;6.20;5.63;;;;;;;;;;5041269;28;20475;-80
2023/08/06 02:32:03;;;;;;;7.47;5.40;;;;;;;;;;5044095;28;20449;-79
2023/08/06 02:34:30;;;;;;;5.40;4.80;;;;;;;;;;5039848;28;20767;-80
2023/08/06 02:36:56;;;;;;;7.67;5.33;;;;;;;;;;5043071;28;20455;-80
2023/08/06 02:39:22;;;;;;;8.17;6.03;;;;;;;;;;5041819;28;20463;-80
2023/08/06 02:41:49;;;;;;;5.57;5.07;;;;;;;;;;5037201;28;20506;-80
2023/08/06 02:44:17;;;;;;;6.20;5.53;;;;;;;;;;5040246;28;20473;-80
2023/08/06 02:46:46;;;;;;;7.30;5.40;;;;;;;;;;5043795;28;20952;-80
2023/08/06 02:49:13;;;;;;;6.80;5.97;;;;;;;;;;5041659;28;20449;-80
2023/08/06 02:51:40;;;;;;;6.30;5.70;;;;;;;;;;5044916;28;20475;-80
2023/08/06 02:54:06;;;;;;;7.50;5.87;;;;;;;;;;5042857;28;20449;-80
2023/08/06 02:56:32;;;;;;;6.47;5.87;;;;;;;;;;5048307;28;20447;-80
2023/08/06 02:58:59;;;;;;;10.70;6.63;;;;;;;;;;5044793;28;20450;-80
2023/08/06 03:01:26;;;;;;;6.77;6.13;;;;;;;;;;5045636;28;20456;-80
2023/08/06 03:03:54;;;;;;;7.73;6.63;;;;;;;;;;5045592;28;20506;-80
2023/08/06 03:06:20;;;;;;;6.90;6.20;;;;;;;;;;5043891;28;20513;-80
2023/08/06 03:08:47;;;;;;;8.03;6.40;;;;;;;;;;5040833;28;20871;-80
2023/08/06 03:11:13;;;;;;;7.10;6.40;;;;;;;;;;5047768;28;20430;-79
2023/08/06 03:13:40;;;;;;;8.10;5.90;;;;;;;;;;5046656;28;20480;-80
2023/08/06 03:16:06;;;;;;;8.73;6.03;;;;;;;;;;5047678;28;21111;-80
2023/08/06 03:18:32;;;;;;;7.40;6.20;;;;;;;;;;5044252;28;20868;-79
2023/08/06 03:21:00;;;;;;;13.70;7.07;;;;;;;;;;5045180;28;20450;-80
2023/08/06 03:23:26;;;;;;;7.13;5.80;;;;;;;;;;5043588;28;20475;-80
2023/08/06 03:25:53;;;;;;;7.90;6.40;;;;;;;;;;5044516;28;20449;-80
2023/08/06 03:28:19;;;;;;;6.40;5.70;;;;;;;;;;5044154;28;20523;-80
2023/08/06 03:30:46;;;;;;;8.23;6.87;;;;;;;;;;5046175;28;20438;-80
2023/08/06 03:33:12;;;;;;;7.50;6.73;;;;;;;;;;5040960;28;20475;-80
2023/08/06 03:35:38;;;;;;;7.10;6.40;;;;;;;;;;5044521;28;20433;-80
2023/08/06 03:38:06;;;;;;;6.53;5.83;;;;;;;;;;5046458;28;20449;-80
2023/08/06 03:40:33;;;;;;;7.90;6.73;;;;;;;;;;5043020;28;20414;-80
2023/08/06 03:43:01;;;;;;;7.63;6.83;;;;;;;;;;5044253;28;20479;-80
2023/08/06 03:45:28;;;;;;;6.53;5.90;;;;;;;;;;5043211;28;20452;-80
2023/08/06 03:47:55;;;;;;;7.47;6.57;;;;;;;;;;5043074;28;20933;-80
2023/08/06 03:50:22;;;;;;;7.83;6.37;;;;;;;;;;5042680;28;20426;-80
2023/08/06 03:52:48;;;;;;;10.10;7.77;;;;;;;;;;5045191;28;21008;-80
2023/08/06 03:55:16;;;;;;;9.70;7.30;;;;;;;;;;5044852;28;20513;-80
2023/08/06 03:57:42;;;;;;;11.00;9.10;;;;;;;;;;5044396;28;20999;-80
2023/08/06 04:00:09;;;;;;;9.40;7.17;;;;;;;;;;5042471;28;21078;-80
2023/08/06 04:02:35;;;;;;;8.53;7.53;;;;;;;;;;5046625;28;20479;-80
2023/08/06 04:05:02;;;;;;;8.63;7.70;;;;;;;;;;5046556;28;20453;-80
2023/08/06 04:07:30;;;;;;;12.87;8.37;;;;;;;;;;5041726;28;21029;-80
2023/08/06 04:09:58;;;;;;;9.00;8.17;;;;;;;;;;5043463;28;20454;-80
2023/08/06 04:12:26;;;;;;;9.93;7.40;;;;;;;;;;5044202;28;20458;-80
2023/08/06 04:14:52;;;;;;;8.90;8.00;;;;;;;;;;5044232;28;20446;-80
2023/08/06 04:17:20;;;;;;;10.70;7.33;;;;;;;;;;5041424;28;21009;-80
2023/08/06 04:19:47;;;;;;;12.30;8.27;;;;;;;;;;5042996;28;20464;-80
2023/08/06 04:22:13;;;;;;;11.90;7.67;;;;;;;;;;5044228;28;20458;-80
2023/08/06 04:24:39;;;;;;;9.30;8.40;;;;;;;;;;5043717;28;20568;-80
2023/08/06 04:27:06;;;;;;;9.83;8.63;;;;;;;;;;5044323;28;20442;-80
2023/08/06 04:29:34;;;;;;;10.33;7.97;;;;;;;;;;5044388;28;20484;-80
2023/08/06 04:32:00;;;;;;;10.37;8.17;;;;;;;;;;5042657;28;20521;-80
2023/08/06 04:34:27;;;;;;;9.43;7.27;;;;;;;;;;5042306;28;20476;-80
2023/08/06 04:36:53;;;;;;;9.23;8.10;;;;;;;;;;5045675;28;20477;-80
2023/08/06 04:39:20;;;;;;;12.10;9.43;;;;;;;;;;5045250;28;20442;-80
2023/08/06 04:41:46;;;;;;;11.17;8.13;;;;;;;;;;5043699;28;20557;-79
2023/08/06 04:44:12;;;;;;;13.53;9.13;;;;;;;;;;5042554;28;21029;-80
2023/08/06 04:46:40;;;;;;;11.03;8.33;;;;;;;;;;5044824;28;20921;-80
2023/08/06 04:49:07;;;;;;;15.50;8.10;;;;;;;;;;5041833;28;20821;-80
2023/08/06 04:51:34;;;;;;;9.20;8.23;;;;;;;;;;5043823;28;20932;-79
2023/08/06 04:54:01;;;;;;;10.23;8.17;;;;;;;;;;5041220;28;20457;-80
2023/08/06 04:56:28;;;;;;;10.93;9.43;;;;;;;;;;5041652;28;20934;-79
2023/08/06 04:58:54;;;;;;;10.23;9.00;;;;;;;;;;5044630;28;20476;-80
2023/08/06 05:01:20;;;;;;;9.90;8.43;;;;;;;;;;5043061;28;20463;-80
2023/08/06 05:03:49;;;;;;;9.17;8.27;;;;;;;;;;5045165;28;21000;-80
2023/08/06 05:06:15;;;;;;;11.80;9.97;;;;;;;;;;5042799;28;20459;-80
2023/08/06 05:08:41;;;;;;;10.57;9.43;;;;;;;;;;5043003;28;20451;-80
2023/08/06 05:11:08;;;;;;;11.73;9.70;;;;;;;;;;5039852;28;20960;-79
2023/08/06 05:13:34;;;;;;;12.33;9.33;;;;;;;;;;5041453;28;20488;-80
2023/08/06 05:16:00;;;;;;;11.50;9.40;;;;;;;;;;5041840;28;20967;-80
2023/08/06 05:18:27;;;;;;;10.57;9.47;;;;;;;;;;5042809;28;20483;-80
2023/08/06 05:20:54;;;;;;;10.03;9.00;;;;;;;;;;5046373;28;20463;-80
2023/08/06 05:23:21;;;;;;;10.40;9.30;;;;;;;;;;5041573;28;20487;-80
2023/08/06 05:25:47;;;;;;;14.37;9.73;;;;;;;;;;5044250;28;20439;-80
2023/08/06 05:28:15;;;;;;;10.37;9.10;;;;;;;;;;5041853;28;20537;-80
2023/08/06 05:30:41;;;;;;;13.77;10.37;;;;;;;;;;5043852;28;20437;-80
2023/08/06 05:33:08;;;;;;;12.03;10.07;;;;;;;;;;5039738;28;20458;-80
2023/08/06 05:35:34;;;;;;;16.07;10.47;;;;;;;;;;5041378;28;20431;-79
2023/08/06 05:38:02;;;;;;;12.53;10.30;;;;;;;;;;5040016;28;20438;-80
2023/08/06 05:40:28;;;;;;;13.53;12.20;;;;;;;;;;5043265;28;20928;-80
2023/08/06 05:42:55;;;;;;;15.80;13.13;;;;;;;;;;5041704;28;20819;-80
2023/08/06 05:45:21;;;;;;;15.70;13.83;;;;;;;;;;5044044;28;20443;-80
2023/08/06 05:47:48;;;;;;;16.33;14.43;;;;;;;;;;5041510;28;20514;-80
2023/08/06 05:50:15;;;;;;;19.33;16.10;;;;;;;;;;5041508;28;20465;-80
2023/08/06 05:52:41;;;;;;;18.40;15.03;;;;;;;;;;5041284;28;20805;-80
2023/08/06 05:55:10;;;;;;;27.33;17.07;;;;;;;;;;5041962;28;20444;-80
2023/08/06 05:57:36;;;;;;;28.43;18.60;;;;;;;;;;5039648;28;20441;-80
2023/08/06 06:00:06;;;;;;;20.90;16.63;;;;;;;;;;5040029;28;20462;-80
2023/08/06 06:02:32;;;;;;;25.63;15.93;;;;;;;;;;5042938;28;20486;-80
2023/08/06 06:04:58;;;;;;;27.00;19.00;;;;;;;;;;5041303;28;20427;-80
2023/08/06 06:07:25;;;;;;;28.00;20.03;;;;;;;;;;5039423;28;20433;-80
2023/08/06 06:09:51;;;;;;;25.70;17.90;;;;;;;;;;5041399;28;21168;-80
2023/08/06 06:12:19;;;;;;;28.00;19.50;;;;;;;;;;5041997;28;21001;-80
2023/08/06 06:14:46;;;;;;;29.10;19.17;;;;;;;;;;5041580;28;20499;-80
2023/08/06 06:17:12;;;;;;;29.53;20.50;;;;;;;;;;5041573;28;21000;-80
2023/08/06 06:19:39;;;;;;;31.03;21.07;;;;;;;;;;5041857;28;20476;-80
2023/08/06 06:22:05;;;;;;;22.97;17.80;;;;;;;;;;5041966;28;20485;-80
2023/08/06 06:24:31;;;;;;;24.43;17.87;;;;;;;;;;5043071;28;20474;-80
2023/08/06 06:26:58;;;;;;;25.50;17.20;;;;;;;;;;5045260;28;20438;-80
2023/08/06 06:29:26;;;;;;;19.97;15.07;;;;;;;;;;5045519;28;20883;-80
2023/08/06 06:31:52;;;;;;;21.30;15.10;;;;;;;;;;5044950;28;20457;-80
2023/08/06 06:34:18;;;;;;;18.17;13.40;;;;;;;;;;5047003;28;20466;-80
2023/08/06 06:36:44;;;;;;;23.83;14.20;;;;;;;;;;5044991;28;20439;-80
2023/08/06 06:39:11;;;;;;;14.77;11.60;;;;;;;;;;5046046;28;20435;-80
2023/08/06 06:41:38;;;;;;;18.83;12.43;;;;;;;;;;5045683;28;20480;-80
2023/08/06 06:44:06;;;;;;;15.33;12.30;;;;;;;;;;5040460;28;20482;-80
2023/08/06 06:46:33;;;;;;;17.57;10.70;;;;;;;;;;5044977;28;20456;-80
2023/08/06 06:49:00;;;;;;;14.97;12.03;;;;;;;;;;5043992;28;20677;-80
2023/08/06 06:51:26;;;;;;;14.00;11.97;;;;;;;;;;5045040;28;20442;-80
2023/08/06 06:53:52;;;;;;;12.67;10.50;;;;;;;;;;5045560;28;20438;-80
2023/08/06 06:56:19;;;;;;;13.03;10.10;;;;;;;;;;5046441;28;20464;-80
2023/08/06 06:58:45;;;;;;;12.20;10.40;;;;;;;;;;5045025;28;20442;-80
2023/08/06 07:01:12;;;;;;;11.13;9.90;;;;;;;;;;5042474;28;20435;-80
2023/08/06 07:03:40;;;;;;;10.70;9.60;;;;;;;;;;5044060;28;20440;-80
2023/08/06 07:06:07;;;;;;;11.03;9.20;;;;;;;;;;5045560;28;20796;-80
2023/08/06 07:08:33;;;;;;;13.60;11.80;;;;;;;;;;5046530;28;20475;-80
2023/08/06 07:11:03;;;;;;;14.77;11.27;;;;;;;;;;5047655;28;20814;-80
2023/08/06 07:13:31;;;;;;;10.07;9.03;;;;;;;;;;5043273;28;20561;-80
2023/08/06 07:15:58;;;;;;;11.27;9.63;;;;;;;;;;5046057;28;20468;-79
2023/08/06 07:18:25;;;;;;;13.17;11.90;;;;;;;;;;5044805;28;20468;-80
2023/08/06 07:20:53;;;;;;;15.13;13.17;;;;;;;;;;5045447;28;20463;-80
2023/08/06 07:23:20;;;;;;;18.83;16.20;;;;;;;;;;5043723;28;20484;-80
2023/08/06 07:25:47;;;;;;;19.97;17.03;;;;;;;;;;5045197;28;20464;-80
2023/08/06 07:28:13;;;;;;;13.63;12.13;;;;;;;;;;5045690;28;20455;-80
2023/08/06 07:30:40;;;;;;;14.47;12.50;;;;;;;;;;5044372;28;20456;-80
2023/08/06 07:33:06;;;;;;;16.70;15.00;;;;;;;;;;5044151;28;20558;-80
2023/08/06 07:35:33;;;;;;;15.90;14.20;;;;;;;;;;5042834;28;20430;-80
2023/08/06 07:38:01;;;;;;;17.47;15.80;;;;;;;;;;5042045;28;20472;-80
2023/08/06 07:40:27;;;;;;;18.70;16.47;;;;;;;;;;5043522;28;20452;-80
2023/08/06 07:42:54;;;;;;;17.13;15.43;;;;;;;;;;5043868;28;20471;-80
2023/08/06 07:45:21;;;;;;;17.00;12.90;;;;;;;;;;5045810;28;20482;-80
2023/08/06 07:47:47;;;;;;;15.00;13.40;;;;;;;;;;5046384;28;20459;-80
2023/08/06 07:50:14;;;;;;;13.17;11.77;;;;;;;;;;5043433;28;20495;-79
2023/08/06 07:52:40;;;;;;;12.17;10.60;;;;;;;;;;5044070;28;20479;-80
2023/08/06 07:55:08;;;;;;;11.00;9.83;;;;;;;;;;5047377;28;20441;-80
2023/08/06 07:57:35;;;;;;;12.40;10.13;;;;;;;;;;5042005;28;20476;-81
2023/08/06 08:00:01;;;;;;;11.70;9.00;;;;;;;;;;5044546;28;20452;-80
2023/08/06 08:02:30;;;;;;;8.70;7.90;;;;;;;;;;5045040;28;20496;-80
2023/08/06 08:04:56;;;;;;;10.73;9.70;;;;;;;;;;5044179;28;20485;-80
2023/08/06 08:07:22;;;;;;;10.47;9.57;;;;;;;;;;5045855;28;20456;-80
2023/08/06 08:09:50;;;;;;;11.80;10.60;;;;;;;;;;5047738;28;20478;-80
2023/08/06 08:12:18;;;;;;;10.77;9.87;;;;;;;;;;5045011;28;20989;-80
2023/08/06 08:14:45;;;;;;;12.87;11.43;;;;;;;;;;5043736;28;20496;-80
2023/08/06 08:17:11;;;;;;;14.60;11.00;;;;;;;;;;5043826;28;20843;-81
2023/08/06 08:19:38;;;;;;;10.03;9.10;;;;;;;;;;5044317;28;20479;-80
2023/08/06 08:22:04;;;;;;;10.40;9.40;;;;;;;;;;5043553;28;20472;-80
2023/08/06 08:24:31;;;;;;;10.33;9.30;;;;;;;;;;5042260;28;20483;-80
2023/08/06 08:26:57;;;;;;;8.10;7.37;;;;;;;;;;5043540;28;20457;-80
2023/08/06 08:29:25;;;;;;;10.23;8.33;;;;;;;;;;5042754;28;20488;-80
2023/08/06 08:31:51;;;;;;;7.33;6.53;;;;;;;;;;5044721;28;20484;-80
2023/08/06 08:34:18;;;;;;;7.90;7.20;;;;;;;;;;5041242;28;20480;-81
2023/08/06 08:36:46;;;;;;;7.73;7.03;;;;;;;;;;5044290;28;20464;-80
2023/08/06 08:39:13;;;;;;;8.10;6.73;;;;;;;;;;5044338;28;20470;-80
2023/08/06 08:41:39;;;;;;;7.13;6.53;;;;;;;;;;5043147;28;20491;-80
2023/08/06 08:44:10;;;;;;;8.67;6.20;;;;;;;;;;5043558;28;20487;-81
2023/08/06 08:46:39;;;;;;;6.37;5.77;;;;;;;;;;5041759;28;20461;-80
2023/08/06 08:49:06;;;;;;;8.63;5.90;;;;;;;;;;5041861;28;20484;-80
2023/08/06 08:51:33;;;;;;;6.03;5.43;;;;;;;;;;5042871;28;21048;-81
2023/08/06 08:54:00;;;;;;;5.63;5.13;;;;;;;;;;5042600;28;20472;-81
2023/08/06 08:56:26;;;;;;;4.27;3.90;;;;;;;;;;5045389;28;20456;-81
2023/08/06 08:58:55;;;;;;;4.77;4.37;;;;;;;;;;5043636;28;20537;-80
2023/08/06 09:01:22;;;;;;;4.77;4.23;;;;;;;;;;5042373;28;20463;-81
2023/08/06 09:03:50;;;;;;;5.13;4.40;;;;;;;;;;5043975;28;20484;-81
2023/08/06 09:06:18;;;;;;;4.73;4.30;;;;;;;;;;5041116;28;20475;-81
2023/08/06 09:08:57;;;;;;;4.83;4.30;;;;;;;;;;5042705;28;20519;-81
2023/08/06 09:11:24;;;;;;;6.13;5.07;;;;;;;;;;5043008;28;20466;-81
2023/08/06 09:13:50;;;;;;;5.43;4.50;;;;;;;;;;5042114;28;21193;-81
2023/08/06 09:16:17;;;;;;;4.20;3.80;;;;;;;;;;5044045;28;20539;-81
2023/08/06 09:18:43;;;;;;;4.80;4.40;;;;;;;;;;5043180;28;20480;-80
2023/08/06 09:21:16;;;;;;;4.80;4.40;;;;;;;;;;5043118;28;20467;-81
2023/08/06 09:23:42;;;;;;;4.50;4.10;;;;;;;;;;5042966;28;20486;-81
2023/08/06 09:26:12;;;;;;;4.30;3.90;;;;;;;;;;5042439;28;20503;-81
2023/08/06 09:28:39;;;;;;;4.73;4.23;;;;;;;;;;5044395;28;20495;-81
2023/08/06 09:31:06;;;;;;;4.20;3.80;;;;;;;;;;5041508;28;20465;-80
2023/08/06 09:33:32;;;;;;;4.60;4.20;;;;;;;;;;5043841;28;20488;-81
2023/08/06 09:36:07;;;;;;;4.23;3.77;;;;;;;;;;5043295;28;20452;-81
2023/08/06 09:38:38;;;;;;;3.90;3.60;;;;;;;;;;5041893;28;21004;-81
2023/08/06 09:41:04;;;;;;;3.93;3.50;;;;;;;;;;5041353;28;20456;-81
2023/08/06 09:43:30;;;;;;;4.00;3.63;;;;;;;;;;5043348;28;20483;-81
2023/08/06 09:45:57;;;;;;;3.50;3.03;;;;;;;;;;5041581;28;20460;-80
2023/08/06 09:48:25;;;;;;;3.40;3.10;;;;;;;;;;5041936;28;20476;-81
2023/08/06 09:50:52;;;;;;;3.77;3.43;;;;;;;;;;5042045;28;20494;-80
2023/08/06 09:53:19;;;;;;;3.40;3.10;;;;;;;;;;5040603;28;20476;-81
2023/08/06 09:55:47;;;;;;;3.80;3.50;;;;;;;;;;5040358;28;20455;-81
2023/08/06 09:58:14;;;;;;;3.37;3.17;;;;;;;;;;5042232;28;20478;-81
2023/08/06 10:00:40;;;;;;;3.23;3.00;;;;;;;;;;5040993;28;20459;-81
2023/08/06 10:03:07;;;;;;;3.77;3.20;;;;;;;;;;5040379;28;21029;-81
2023/08/06 10:05:34;;;;;;;3.47;3.17;;;;;;;;;;5040544;28;20445;-81
2023/08/06 10:08:02;;;;;;;3.40;3.10;;;;;;;;;;5041405;28;20479;-81
2023/08/06 10:10:30;;;;;;;3.07;2.77;;;;;;;;;;5043090;28;20575;-80
2023/08/06 10:13:01;;;;;;;3.40;2.60;;;;;;;;;;5040373;28;20511;-81
2023/08/06 10:15:28;;;;;;;3.03;2.53;;;;;;;;;;5040980;28;20475;-80
2023/08/06 10:17:57;;;;;;;3.23;3.00;;;;;;;;;;5041498;28;20476;-81
2023/08/06 10:20:23;;;;;;;2.70;2.50;;;;;;;;;;5041799;28;20452;-81
2023/08/06 10:23:01;;;;;;;10.37;2.60;;;;;;;;;;5043133;28;20491;-81
2023/08/06 10:25:31;;;;;;;3.20;2.87;;;;;;;;;;5041746;28;20983;-81
2023/08/06 10:27:57;;;;;;;2.87;2.67;;;;;;;;;;5041798;28;20472;-80
2023/08/06 10:30:26;;;;;;;2.57;2.20;;;;;;;;;;5041748;28;20476;-81
2023/08/06 10:32:56;;;;;;;2.83;2.53;;;;;;;;;;5043026;28;20487;-81
2023/08/06 10:35:37;;;;;;;4.27;2.30;;;;;;;;;;5042914;28;21076;-81
2023/08/06 10:38:08;;;;;;;2.80;2.53;;;;;;;;;;5040059;28;20480;-81
2023/08/06 10:40:34;;;;;;;2.57;2.37;;;;;;;;;;5039941;28;20458;-80
2023/08/06 10:43:01;;;;;;;3.00;2.70;;;;;;;;;;5039510;28;20487;-81
2023/08/06 10:45:30;;;;;;;3.10;2.90;;;;;;;;;;5043030;28;20456;-80
2023/08/06 10:47:57;;;;;;;3.20;2.50;;;;;;;;;;5042467;28;20479;-81
2023/08/06 10:50:24;;;;;;;3.60;3.20;;;;;;;;;;5040255;28;20494;-81
2023/08/06 10:52:50;;;;;;;2.90;2.60;;;;;;;;;;5041096;28;20480;-81
2023/08/06 10:55:23;;;;;;;3.17;2.93;;;;;;;;;;5042061;28;20459;-80
2023/08/06 10:57:49;;;;;;;3.73;3.40;;;;;;;;;;5038780;28;21007;-81
2023/08/06 11:00:16;;;;;;;3.50;2.63;;;;;;;;;;5043239;28;20838;-80
2023/08/06 11:02:44;;;;;;;3.73;3.43;;;;;;;;;;5042455;28;20475;-80
2023/08/06 11:05:12;;;;;;;6.13;2.93;;;;;;;;;;5040414;28;20455;-80
2023/08/06 11:07:38;;;;;;;3.30;2.57;;;;;;;;;;5041802;28;21204;-81
2023/08/06 11:10:05;;;;;;;2.93;2.67;;;;;;;;;;5042524;28;20480;-80
2023/08/06 11:12:32;;;;;;;3.07;2.43;;;;;;;;;;5043045;28;20484;-81
2023/08/06 11:14:59;;;;;;;3.13;2.77;;;;;;;;;;5044526;28;20482;-80
2023/08/06 11:17:26;;;;;;;3.20;2.93;;;;;;;;;;5042468;28;20487;-81
2023/08/06 11:19:54;;;;;;;3.10;2.80;;;;;;;;;;5039820;28;20456;-80
2023/08/06 11:22:21;;;;;;;5.60;3.07;;;;;;;;;;5043396;28;20525;-81
2023/08/06 11:24:47;;;;;;;3.23;2.47;;;;;;;;;;5045569;28;20460;-81
2023/08/06 11:27:14;;;;;;;3.40;3.10;;;;;;;;;;5044674;28;20475;-80
2023/08/06 11:29:41;;;;;;;2.63;2.40;;;;;;;;;;5045046;28;20510;-81
2023/08/06 11:32:07;;;;;;;4.10;3.00;;;;;;;;;;5044335;28;20483;-81
2023/08/06 11:34:34;;;;;;;3.60;3.30;;;;;;;;;;5047309;28;20483;-81
2023/08/06 11:37:04;;;;;;;4.40;3.47;;;;;;;;;;5041559;28;20464;-80
2023/08/06 11:39:31;;;;;;;3.57;3.27;;;;;;;;;;5043503;28;20834;-80
2023/08/06 11:42:00;;;;;;;2.93;2.73;;;;;;;;;;5045524;28;20471;-81
2023/08/06 11:44:26;;;;;;;4.63;2.90;;;;;;;;;;5046201;28;20459;-80
2023/08/06 11:46:55;;;;;;;3.40;3.20;;;;;;;;;;5043709;28;20476;-80
2023/08/06 11:49:24;;;;;;;3.30;3.00;;;;;;;;;;5044690;28;20487;-81
2023/08/06 11:51:53;;;;;;;3.93;2.87;;;;;;;;;;5042974;28;21048;-81
2023/08/06 11:54:34;;;;;;;5.30;3.20;;;;;;;;;;5041847;28;20444;-80
2023/08/06 11:57:02;;;;;;;3.30;3.10;;;;;;;;;;5042319;28;20468;-80
2023/08/06 11:59:28;;;;;;;5.93;3.27;;;;;;;;;;5045467;28;20527;-80
2023/08/06 12:01:55;;;;;;;4.13;3.83;;;;;;;;;;5041409;28;20468;-80
2023/08/06 12:04:21;;;;;;;3.60;3.30;;;;;;;;;;5045545;28;20471;-80
2023/08/06 12:06:48;;;;;;;4.40;3.87;;;;;;;;;;5045243;28;20479;-80
2023/08/06 12:09:14;;;;;;;3.83;3.53;;;;;;;;;;5045694;28;20471;-80
2023/08/06 12:11:42;;;;;;;4.10;3.80;;;;;;;;;;5047280;28;20490;-80
2023/08/06 12:14:11;;;;;;;3.80;3.50;;;;;;;;;;5041097;28;20472;-80
2023/08/06 12:16:37;;;;;;;3.67;3.37;;;;;;;;;;5040363;28;20453;-81
2023/08/06 12:19:04;;;;;;;10.43;4.27;;;;;;;;;;5044074;28;20471;-80
2023/08/06 12:21:31;;;;;;;4.23;3.83;;;;;;;;;;5047519;28;20459;-81
2023/08/06 12:23:57;;;;;;;3.97;3.67;;;;;;;;;;5045940;28;20468;-80
2023/08/06 12:26:24;;;;;;;3.50;3.20;;;;;;;;;;5043756;28;20468;-80
2023/08/06 12:28:54;;;;;;;3.37;3.10;;;;;;;;;;5044838;28;20476;-80
2023/08/06 12:31:23;;;;;;;4.53;3.97;;;;;;;;;;5043040;28;20496;-80
2023/08/06 12:33:49;;;;;;;4.50;4.10;;;;;;;;;;5045575;28;20476;-80
2023/08/06 12:36:16;;;;;;;3.80;3.50;;;;;;;;;;5045076;28;20459;-80
2023/08/06 12:38:42;;;;;;;3.77;3.47;;;;;;;;;;5042911;28;20476;-80
2023/08/06 12:41:08;;;;;;;5.07;3.90;;;;;;;;;;5042858;28;20503;-80
2023/08/06 12:43:35;;;;;;;3.53;3.27;;;;;;;;;;5042836;28;20480;-80
2023/08/06 12:46:03;;;;;;;4.00;3.70;;;;;;;;;;5043425;28;20463;-80
2023/08/06 12:48:30;;;;;;;3.97;3.27;;;;;;;;;;5042850;28;20518;-80
2023/08/06 12:50:56;;;;;;;6.53;3.70;;;;;;;;;;5040756;28;20853;-80
2023/08/06 12:53:23;;;;;;;5.13;3.93;;;;;;;;;;5041210;28;20481;-80
2023/08/06 12:55:49;;;;;;;6.30;3.90;;;;;;;;;;5045907;28;20456;-80
2023/08/06 12:58:16;;;;;;;5.43;3.80;;;;;;;;;;5041543;28;20464;-80
2023/08/06 13:00:42;;;;;;;4.43;4.03;;;;;;;;;;5041216;28;20437;-80
2023/08/06 13:03:10;;;;;;;4.33;3.40;;;;;;;;;;5040270;28;20479;-80
2023/08/06 13:05:37;;;;;;;5.03;4.53;;;;;;;;;;5042467;28;20468;-80
2023/08/06 13:08:04;;;;;;;4.33;3.80;;;;;;;;;;5043426;28;20465;-80
2023/08/06 13:10:31;;;;;;;4.13;3.73;;;;;;;;;;5041174;28;20495;-80
2023/08/06 13:12:57;;;;;;;3.43;3.13;;;;;;;;;;5040724;28;20479;-80
2023/08/06 13:15:23;;;;;;;3.87;3.53;;;;;;;;;;5043253;28;20449;-80
2023/08/06 13:17:50;;;;;;;7.30;4.30;;;;;;;;;;5042795;28;20472;-80
2023/08/06 13:20:19;;;;;;;5.30;4.80;;;;;;;;;;5041299;28;20519;-80
2023/08/06 13:22:46;;;;;;;4.57;4.17;;;;;;;;;;5044126;28;20571;-80
2023/08/06 13:25:14;;;;;;;6.27;4.73;;;;;;;;;;5044398;28;20494;-80
2023/08/06 13:27:40;;;;;;;4.63;4.13;;;;;;;;;;5042433;28;20479;-79
2023/08/06 13:30:07;;;;;;;3.57;3.37;;;;;;;;;;5041622;28;20468;-80
2023/08/06 13:32:36;;;;;;;4.23;3.23;;;;;;;;;;5042362;28;20468;-80
2023/08/06 13:35:02;;;;;;;3.47;3.03;;;;;;;;;;5041748;28;20993;-80
2023/08/06 13:37:30;;;;;;;4.40;3.43;;;;;;;;;;5041499;28;20842;-80
2023/08/06 13:39:57;;;;;;;3.77;3.47;;;;;;;;;;5040212;28;20444;-80
2023/08/06 13:42:23;;;;;;;4.97;4.23;;;;;;;;;;5042655;28;20475;-80
2023/08/06 13:44:49;;;;;;;3.77;3.37;;;;;;;;;;5041816;28;20460;-80
2023/08/06 13:47:16;;;;;;;4.93;3.73;;;;;;;;;;5042984;28;21028;-80
2023/08/06 13:49:42;;;;;;;5.33;3.53;;;;;;;;;;5043183;28;20514;-80
2023/08/06 13:52:08;;;;;;;4.23;3.70;;;;;;;;;;5040271;28;21200;-80
2023/08/06 13:54:36;;;;;;;5.83;3.47;;;;;;;;;;5040648;28;20447;-80
2023/08/06 13:57:03;;;;;;;3.90;3.60;;;;;;;;;;5042089;28;20471;-80
2023/08/06 13:59:29;;;;;;;7.80;3.60;;;;;;;;;;5043756;28;20460;-80
2023/08/06 14:01:59;;;;;;;5.97;3.70;;;;;;;;;;5044543;28;20474;-80
2023/08/06 14:04:26;;;;;;;6.70;4.23;;;;;;;;;;5042637;28;20536;-80
2023/08/06 14:06:52;;;;;;;4.53;3.80;;;;;;;;;;5040339;28;20472;-80
2023/08/06 14:09:19;;;;;;;4.13;3.73;;;;;;;;;;5039972;28;20448;-80
2023/08/06 14:11:47;;;;;;;4.77;3.90;;;;;;;;;;5041152;28;20492;-80
2023/08/06 14:14:13;;;;;;;4.23;3.47;;;;;;;;;;5040135;28;20443;-80
2023/08/06 14:16:40;;;;;;;4.70;3.40;;;;;;;;;;5040432;28;20492;-81
2023/08/06 14:19:06;;;;;;;3.63;3.30;;;;;;;;;;5037321;28;20460;-80
2023/08/06 14:21:33;;;;;;;3.83;3.00;;;;;;;;;;5041399;28;20467;-80
2023/08/06 14:23:59;;;;;;;3.83;2.97;;;;;;;;;;5041365;28;20461;-79
2023/08/06 14:26:26;;;;;;;3.73;3.43;;;;;;;;;;5043620;28;20460;-79
2023/08/06 14:28:54;;;;;;;5.40;3.67;;;;;;;;;;5039690;28;20472;-79
2023/08/06 14:31:20;;;;;;;3.87;3.30;;;;;;;;;;5040458;28;20993;-79
2023/08/06 14:33:47;;;;;;;3.20;2.90;;;;;;;;;;5041191;28;20472;-79
2023/08/06 14:36:13;;;;;;;4.80;3.07;;;;;;;;;;5039225;28;20464;-79
2023/08/06 14:38:39;;;;;;;3.93;3.17;;;;;;;;;;5040260;28;20480;-80